createdAt,value
2023-05-12T00:01:01.900Z,52.94
2023-05-12T00:03:30.188Z,53.53
2023-05-12T00:06:06.767Z,53.42
2023-05-12T00:08:34.851Z,53.44
2023-05-12T00:11:11.937Z,53.45
2023-05-12T00:13:40.433Z,54.17
2023-05-12T00:16:09.244Z,51.88
2023-05-12T00:18:37.922Z,50.71
2023-05-12T00:21:08.760Z,49.84
2023-05-12T00:23:36.976Z,49.49
2023-05-12T00:26:07.463Z,49.43
2023-05-12T00:28:36.288Z,50.25
2023-05-12T00:31:04.714Z,50.07
2023-05-12T00:33:33.677Z,50.26
2023-05-12T00:36:04.006Z,50.53
2023-05-12T00:38:34.251Z,50.80
2023-05-12T00:41:02.143Z,51.17
2023-05-12T00:43:30.302Z,51.40
2023-05-12T00:45:58.585Z,52.05
2023-05-12T00:48:27.119Z,52.40
2023-05-12T00:50:55.879Z,51.52
2023-05-12T00:53:24.531Z,50.74
2023-05-12T00:55:54.143Z,50.49
2023-05-12T00:58:22.186Z,50.88
2023-05-12T01:00:53.655Z,52.14
2023-05-12T01:03:24.839Z,53.30
2023-05-12T01:06:26.406Z,54.07
2023-05-12T01:08:54.966Z,55.13
2023-05-12T01:11:23.826Z,54.85
2023-05-12T01:13:52.722Z,55.52
2023-05-12T01:16:24.402Z,55.68
2023-05-12T01:18:55.735Z,56.35
2023-05-12T01:21:24.056Z,56.82
2023-05-12T01:23:59.902Z,56.27
2023-05-12T01:26:32.900Z,55.87
2023-05-12T01:29:05.141Z,56.43
2023-05-12T01:31:33.848Z,56.01
2023-05-12T01:34:01.835Z,55.30
2023-05-12T01:36:29.975Z,55.48
2023-05-12T01:39:00.702Z,55.96
2023-05-12T01:41:29.420Z,57.26
2023-05-12T01:43:59.224Z,57.65
2023-05-12T01:46:27.570Z,58.23
2023-05-12T01:48:55.869Z,58.29
2023-05-12T01:51:23.935Z,57.89
2023-05-12T01:53:52.020Z,57.83
2023-05-12T01:56:20.389Z,57.50
2023-05-12T01:58:48.970Z,57.50
2023-05-12T02:01:18.806Z,58.50
2023-05-12T02:03:46.982Z,58.36
2023-05-12T02:06:15.257Z,58.53
2023-05-12T02:08:43.528Z,59.54
2023-05-12T02:11:11.974Z,59.33
2023-05-12T02:13:40.439Z,59.63
2023-05-12T02:16:08.746Z,59.57
2023-05-12T02:18:40.082Z,59.14
2023-05-12T02:21:08.264Z,58.26
2023-05-12T02:23:36.759Z,56.22
2023-05-12T02:26:05.024Z,53.28
2023-05-12T02:28:33.745Z,50.33
2023-05-12T02:31:02.021Z,45.73
2023-05-12T02:33:30.632Z,42.37
2023-05-12T02:35:58.942Z,40.30
2023-05-12T02:38:27.988Z,38.30
2023-05-12T02:40:56.536Z,36.25
2023-05-12T02:43:24.795Z,34.28
2023-05-12T02:45:53.130Z,32.28
2023-05-12T02:48:21.686Z,29.57
2023-05-12T02:50:49.974Z,28.16
2023-05-12T02:53:18.074Z,27.33
2023-05-12T02:55:46.347Z,26.35
2023-05-12T02:58:14.587Z,25.88
2023-05-12T03:00:42.655Z,25.76
2023-05-12T03:03:10.961Z,25.74
2023-05-12T03:05:39.212Z,23.92
2023-05-12T03:08:07.836Z,25.24
2023-05-12T03:10:36.519Z,23.62
2023-05-12T03:13:04.533Z,22.58
2023-05-12T03:15:32.748Z,21.82
2023-05-12T03:18:00.920Z,20.88
2023-05-12T03:20:28.929Z,20.05
2023-05-12T03:22:57.088Z,20.24
2023-05-12T03:25:25.099Z,19.65
2023-05-12T03:27:53.534Z,19.16
2023-05-12T03:30:24.617Z,18.92
2023-05-12T03:32:52.804Z,19.13
2023-05-12T03:35:21.167Z,18.83
2023-05-12T03:37:49.160Z,18.36
2023-05-12T03:40:19.220Z,18.28
2023-05-12T03:42:47.451Z,18.89
2023-05-12T03:45:15.928Z,17.29
2023-05-12T03:47:44.614Z,16.85
2023-05-12T03:50:13.279Z,15.97
2023-05-12T03:52:41.955Z,17.06
2023-05-12T03:55:10.756Z,16.62
2023-05-12T03:57:38.852Z,16.25
2023-05-12T04:00:07.644Z,15.92
2023-05-12T04:02:36.598Z,15.88
2023-05-12T04:05:08.507Z,15.87
2023-05-12T04:07:38.927Z,15.60
2023-05-12T04:10:07.567Z,16.30
2023-05-12T04:12:35.632Z,16.50
2023-05-12T04:15:03.994Z,15.13
2023-05-12T04:17:32.865Z,15.27
2023-05-12T04:20:01.121Z,14.96
2023-05-12T04:22:31.966Z,15.38
2023-05-12T04:25:00.034Z,16.05
2023-05-12T04:27:30.913Z,15.92
2023-05-12T04:29:59.003Z,15.44
2023-05-12T04:32:26.910Z,16.53
2023-05-12T04:34:57.091Z,15.69
2023-05-12T04:37:25.023Z,15.50
2023-05-12T04:39:53.892Z,16.23
2023-05-12T04:42:21.955Z,15.72
2023-05-12T04:44:50.386Z,15.26
2023-05-12T04:47:18.717Z,14.94
2023-05-12T04:49:47.353Z,14.52
2023-05-12T04:52:15.832Z,14.64
2023-05-12T04:54:44.637Z,14.72
2023-05-12T04:57:12.564Z,13.47
2023-05-12T04:59:41.559Z,14.22
2023-05-12T05:02:12.143Z,14.76
2023-05-12T05:04:44.806Z,15.52
2023-05-12T05:07:13.030Z,16.87
2023-05-12T05:09:41.050Z,16.14
2023-05-12T05:12:09.327Z,17.92
2023-05-12T05:14:37.394Z,16.65
2023-05-12T05:17:08.524Z,15.69
2023-05-12T05:19:50.931Z,14.07
2023-05-12T05:22:23.774Z,14.22
2023-05-12T05:24:52.369Z,13.71
2023-05-12T05:27:21.249Z,13.68
2023-05-12T05:29:49.716Z,14.81
2023-05-12T05:32:17.699Z,15.75
2023-05-12T05:34:45.888Z,15.99
2023-05-12T05:37:14.040Z,15.47
2023-05-12T05:39:42.456Z,14.90
2023-05-12T05:42:12.316Z,14.73
2023-05-12T05:44:43.991Z,13.97
2023-05-12T05:47:14.593Z,14.23
2023-05-12T05:49:43.002Z,14.95
2023-05-12T05:52:11.137Z,14.45
2023-05-12T05:54:39.478Z,14.51
2023-05-12T05:57:10.151Z,14.71
2023-05-12T05:59:39.125Z,14.41
2023-05-12T06:02:07.626Z,15.33
2023-05-12T06:04:36.250Z,15.45
2023-05-12T06:07:07.234Z,15.14
2023-05-12T06:09:36.455Z,14.86
2023-05-12T06:12:04.967Z,14.65
2023-05-12T06:14:33.012Z,14.24
2023-05-12T06:17:01.309Z,14.08
2023-05-12T06:19:31.165Z,14.04
2023-05-12T06:21:59.803Z,14.05
2023-05-12T06:24:28.147Z,13.74
2023-05-12T06:26:56.817Z,14.11
2023-05-12T06:29:25.030Z,14.57
2023-05-12T06:31:54.326Z,15.00
2023-05-12T06:34:22.901Z,14.54
2023-05-12T06:36:52.130Z,14.59
2023-05-12T06:39:21.678Z,14.44
2023-05-12T06:41:49.991Z,15.01
2023-05-12T06:44:18.689Z,14.72
2023-05-12T06:46:46.953Z,15.02
2023-05-12T06:49:14.673Z,14.77
2023-05-12T06:51:43.122Z,14.66
2023-05-12T06:54:11.379Z,15.43
2023-05-12T06:56:39.427Z,15.01
2023-05-12T06:59:07.926Z,15.21
2023-05-12T07:01:37.102Z,17.22
2023-05-12T07:04:05.944Z,19.30
2023-05-12T07:06:35.837Z,21.43
2023-05-12T07:09:04.952Z,22.71
2023-05-12T07:11:33.554Z,23.55
2023-05-12T07:14:01.754Z,24.02
2023-05-12T07:16:30.267Z,24.29
2023-05-12T07:18:58.876Z,24.33
2023-05-12T07:21:27.780Z,25.09
2023-05-12T07:23:56.814Z,24.99
2023-05-12T07:26:24.832Z,25.53
2023-05-12T07:28:53.917Z,25.45
2023-05-12T07:31:22.488Z,24.64
2023-05-12T07:33:50.571Z,24.45
2023-05-12T07:36:21.322Z,24.65
2023-05-12T07:38:50.870Z,24.67
2023-05-12T07:41:19.347Z,24.19
2023-05-12T07:43:47.575Z,23.88
2023-05-12T07:46:15.632Z,24.40
2023-05-12T07:48:44.030Z,24.36
2023-05-12T07:51:12.119Z,24.78
2023-05-12T07:53:40.128Z,25.20
2023-05-12T07:56:08.854Z,25.41
2023-05-12T07:58:37.490Z,25.65
2023-05-12T08:01:07.184Z,25.27
2023-05-12T08:03:39.964Z,25.25
2023-05-12T08:06:08.303Z,24.65
2023-05-12T08:08:36.878Z,24.21
2023-05-12T08:11:05.191Z,24.75
2023-05-12T08:13:33.801Z,23.73
2023-05-12T08:16:01.718Z,23.71
2023-05-12T08:18:29.876Z,23.63
2023-05-12T08:20:58.879Z,23.38
2023-05-12T08:23:29.898Z,23.63
2023-05-12T08:25:59.342Z,23.28
2023-05-12T08:28:27.370Z,23.41
2023-05-12T08:30:55.269Z,23.24
2023-05-12T08:33:24.364Z,23.42
2023-05-12T08:35:52.627Z,23.58
2023-05-12T08:38:29.886Z,23.68
2023-05-12T08:41:07.268Z,23.74
2023-05-12T08:43:46.813Z,24.14
2023-05-12T08:46:15.806Z,24.54
2023-05-12T08:48:46.773Z,24.68
2023-05-12T08:51:14.941Z,24.79
2023-05-12T08:53:43.583Z,24.69
2023-05-12T08:58:46.809Z,25.00
2023-05-12T09:01:15.341Z,25.20
2023-05-12T09:03:45.723Z,24.98
2023-05-12T09:06:13.883Z,25.17
2023-05-12T09:08:42.241Z,24.59
2023-05-12T09:11:13.904Z,24.40
2023-05-12T09:13:56.002Z,24.56
2023-05-12T09:16:26.014Z,24.53
2023-05-12T09:18:55.361Z,24.71
2023-05-12T09:21:23.821Z,24.99
2023-05-12T09:23:55.910Z,24.98
2023-05-12T09:26:25.905Z,24.57
2023-05-12T09:28:56.666Z,24.74
2023-05-12T09:31:26.453Z,24.73
2023-05-12T09:33:54.642Z,24.85
2023-05-12T09:36:24.932Z,25.20
2023-05-12T09:39:07.708Z,25.36
2023-05-12T09:41:41.105Z,25.37
2023-05-12T09:44:10.570Z,24.94
2023-05-12T09:46:40.153Z,25.37
2023-05-12T09:49:09.769Z,25.28
2023-05-12T09:51:38.274Z,25.41
2023-05-12T09:54:09.481Z,25.69
2023-05-12T09:56:38.743Z,24.98
2023-05-12T09:59:07.271Z,24.26
2023-05-12T10:01:36.289Z,24.42
2023-05-12T10:04:05.952Z,23.95
2023-05-12T10:06:38.685Z,24.24
2023-05-12T10:09:28.447Z,24.01
2023-05-12T10:11:57.115Z,23.25
2023-05-12T10:14:25.385Z,22.98
2023-05-12T10:16:56.792Z,23.00
2023-05-12T10:19:27.614Z,22.59
2023-05-12T10:21:58.355Z,22.68
2023-05-12T10:24:28.056Z,22.80
2023-05-12T10:26:59.838Z,22.60
2023-05-12T10:29:30.293Z,22.78
2023-05-12T10:32:00.033Z,22.72
2023-05-12T10:34:34.498Z,22.18
2023-05-12T10:37:08.587Z,22.26
2023-05-12T10:39:38.473Z,21.99
2023-05-12T10:42:07.716Z,22.13
2023-05-12T10:44:37.044Z,21.76
2023-05-12T10:47:15.017Z,21.52
2023-05-12T10:49:43.636Z,21.78
2023-05-12T10:52:13.394Z,21.49
2023-05-12T10:54:45.901Z,21.51
2023-05-12T10:57:21.170Z,21.44
2023-05-12T10:59:54.833Z,21.68
2023-05-12T11:02:32.615Z,21.66
2023-05-12T11:05:05.203Z,21.39
2023-05-12T11:07:35.273Z,21.91
2023-05-12T11:10:06.499Z,21.82
2023-05-12T11:12:36.699Z,21.29
2023-05-12T11:15:07.241Z,21.47
2023-05-12T11:18:02.801Z,21.18
2023-05-12T11:20:31.293Z,21.10
2023-05-12T11:22:59.986Z,21.64
2023-05-12T11:25:28.748Z,21.94
2023-05-12T11:27:57.137Z,21.54
2023-05-12T11:30:26.661Z,21.49
2023-05-12T11:33:02.614Z,21.75
2023-05-12T11:35:32.602Z,21.64
2023-05-12T11:38:03.352Z,21.40
2023-05-12T11:40:31.626Z,21.65
2023-05-12T11:43:10.495Z,21.97
2023-05-12T11:45:38.617Z,21.54
2023-05-12T11:48:12.606Z,21.71
2023-05-12T11:50:48.118Z,21.85
2023-05-12T11:53:19.545Z,21.75
2023-05-12T11:55:53.402Z,21.25
2023-05-12T11:58:27.267Z,21.54
2023-05-12T12:00:55.918Z,21.72
2023-05-12T12:03:25.637Z,21.35
2023-05-12T12:06:04.828Z,20.89
2023-05-12T12:08:34.571Z,21.13
2023-05-12T12:11:04.713Z,20.91
2023-05-12T12:13:33.458Z,20.48
2023-05-12T12:16:01.586Z,21.32
2023-05-12T12:18:29.748Z,21.27
2023-05-12T12:20:58.435Z,21.36
2023-05-12T12:23:27.260Z,21.56
2023-05-12T12:25:58.598Z,21.37
2023-05-12T12:28:29.115Z,21.52
2023-05-12T12:30:57.565Z,21.27
2023-05-12T12:33:25.792Z,21.62
2023-05-12T12:35:54.115Z,22.06
2023-05-12T12:38:22.239Z,21.87
2023-05-12T12:40:50.311Z,21.92
2023-05-12T12:43:18.139Z,21.77
2023-05-12T12:45:46.717Z,21.78
2023-05-12T12:48:15.515Z,21.35
2023-05-12T12:50:43.771Z,21.61
2023-05-12T12:53:11.813Z,21.56
2023-05-12T12:55:39.921Z,21.82
2023-05-12T12:58:07.772Z,22.12
2023-05-12T13:00:37.690Z,22.46
2023-05-12T13:03:08.271Z,22.54
2023-05-12T13:05:37.159Z,22.53
2023-05-12T13:08:05.530Z,22.74
2023-05-12T13:10:33.696Z,22.86
2023-05-12T13:13:02.162Z,22.40
2023-05-12T13:15:32.728Z,22.40
2023-05-12T13:18:00.963Z,22.35
2023-05-12T13:20:29.480Z,21.90
2023-05-12T13:22:59.624Z,21.73
2023-05-12T13:25:27.667Z,21.83
2023-05-12T13:27:55.686Z,21.30
2023-05-12T13:30:25.366Z,21.49
2023-05-12T13:32:53.496Z,21.42
2023-05-12T13:35:21.954Z,21.40
2023-05-12T13:38:00.112Z,21.15
2023-05-12T13:40:28.478Z,21.44
2023-05-12T13:42:57.173Z,21.23
2023-05-12T13:45:26.106Z,21.48
2023-05-12T13:47:54.443Z,21.36
2023-05-12T13:50:23.079Z,21.22
2023-05-12T13:52:51.186Z,20.98
2023-05-12T13:55:21.757Z,20.91
2023-05-12T13:57:50.308Z,20.94
2023-05-12T14:00:19.164Z,20.76
2023-05-12T14:02:47.267Z,20.86
2023-05-12T14:05:16.275Z,20.74
2023-05-12T14:07:44.724Z,21.22
2023-05-12T14:10:12.993Z,21.23
2023-05-12T14:12:43.226Z,21.83
2023-05-12T14:17:48.202Z,22.34
2023-05-12T14:20:16.834Z,22.79
2023-05-12T14:22:45.787Z,22.75
2023-05-12T14:25:17.117Z,23.17
2023-05-12T14:27:45.780Z,23.10
2023-05-12T14:30:18.293Z,22.87
2023-05-12T14:32:46.255Z,23.66
2023-05-12T14:35:14.314Z,24.00
2023-05-12T14:37:42.609Z,23.81
2023-05-12T14:40:12.485Z,23.96
2023-05-12T14:42:40.844Z,24.09
2023-05-12T14:45:10.291Z,24.14
2023-05-12T14:47:42.012Z,24.07
2023-05-12T14:50:11.029Z,23.86
2023-05-12T14:52:39.337Z,24.25
2023-05-12T14:55:12.386Z,24.45
2023-05-12T14:57:41.511Z,24.51
2023-05-12T15:00:12.120Z,24.94
2023-05-12T15:02:41.790Z,25.53
2023-05-12T15:05:11.962Z,25.55
2023-05-12T15:07:40.260Z,25.70
2023-05-12T15:10:08.992Z,26.18
2023-05-12T15:12:38.996Z,26.59
2023-05-12T15:15:09.165Z,27.13
2023-05-12T15:17:39.043Z,26.61
2023-05-12T15:20:08.449Z,26.95
2023-05-12T15:22:37.303Z,26.62
2023-05-12T15:25:05.912Z,26.55
2023-05-12T15:27:34.224Z,26.74
2023-05-12T15:30:03.491Z,27.98
2023-05-12T15:32:32.416Z,28.27
2023-05-12T15:35:00.451Z,28.61
2023-05-12T15:37:28.886Z,28.78
2023-05-12T15:39:56.772Z,29.00
2023-05-12T15:42:29.977Z,29.01
2023-05-12T15:45:01.021Z,29.28
2023-05-12T15:47:29.787Z,29.06
2023-05-12T15:49:58.485Z,29.21
2023-05-12T15:52:28.754Z,29.33
2023-05-12T15:54:56.937Z,28.99
2023-05-12T15:57:25.197Z,28.85
2023-05-12T16:00:00.317Z,29.07
2023-05-12T16:02:29.506Z,28.81
2023-05-12T16:04:57.628Z,29.20
2023-05-12T16:07:32.000Z,29.19
2023-05-12T16:10:00.323Z,29.56
2023-05-12T16:12:28.714Z,29.39
2023-05-12T16:14:56.940Z,29.54
2023-05-12T16:17:28.135Z,28.84
2023-05-12T16:19:58.618Z,29.24
2023-05-12T16:22:26.823Z,29.12
2023-05-12T16:24:56.997Z,29.85
2023-05-12T16:27:25.575Z,30.23
2023-05-12T16:29:57.227Z,30.77
2023-05-12T16:32:25.357Z,31.14
2023-05-12T16:34:53.593Z,32.04
2023-05-12T16:37:23.169Z,32.90
2023-05-12T16:39:51.123Z,33.27
2023-05-12T16:42:19.425Z,34.36
2023-05-12T16:44:48.237Z,34.49
2023-05-12T16:47:19.838Z,34.96
2023-05-12T16:49:47.875Z,34.54
2023-05-12T16:52:16.153Z,35.36
2023-05-12T16:54:44.263Z,34.80
2023-05-12T16:57:12.294Z,34.91
2023-05-12T16:59:40.470Z,35.46
2023-05-12T17:02:08.926Z,35.97
2023-05-12T17:04:38.058Z,36.79
2023-05-12T17:07:06.436Z,35.73
2023-05-12T17:09:34.367Z,35.79
2023-05-12T17:12:05.383Z,36.28
2023-05-12T17:14:35.071Z,36.95
2023-05-12T17:17:03.405Z,38.47
2023-05-12T17:19:33.835Z,39.39
2023-05-12T17:22:02.105Z,40.67
2023-05-12T17:24:30.727Z,42.31
2023-05-12T17:26:59.927Z,43.48
2023-05-12T17:29:28.944Z,44.07
2023-05-12T17:31:57.827Z,44.12
2023-05-12T17:34:25.920Z,44.67
2023-05-12T17:36:56.321Z,45.22
2023-05-12T17:39:24.384Z,46.26
2023-05-12T17:41:52.623Z,46.99
2023-05-12T17:44:20.912Z,50.01
2023-05-12T17:46:49.626Z,52.00
2023-05-12T17:49:17.727Z,53.25
2023-05-12T17:51:50.273Z,52.02
2023-05-12T17:54:18.296Z,52.47
2023-05-12T17:56:47.803Z,52.29
2023-05-12T17:59:16.268Z,51.35
2023-05-12T18:01:44.421Z,52.09
2023-05-12T18:04:12.995Z,51.59
2023-05-12T18:06:41.606Z,51.63
2023-05-12T18:09:10.364Z,52.66
2023-05-12T18:11:38.679Z,53.93
2023-05-12T18:14:07.528Z,55.92
2023-05-12T18:16:38.295Z,55.45
2023-05-12T18:19:06.768Z,55.21
2023-05-12T18:21:35.853Z,55.24
2023-05-12T18:24:05.056Z,55.89
2023-05-12T18:26:33.138Z,56.76
2023-05-12T18:29:01.135Z,57.01
2023-05-12T18:31:29.791Z,57.50
2023-05-12T18:33:58.006Z,57.92
2023-05-12T18:36:26.041Z,59.13
2023-05-12T18:38:54.381Z,59.35
2023-05-12T18:41:23.613Z,60.32
2023-05-12T18:43:52.036Z,61.00
2023-05-12T18:46:22.938Z,61.05
2023-05-12T18:48:51.384Z,61.31
2023-05-12T18:51:19.554Z,61.60
2023-05-12T18:53:48.729Z,62.36
2023-05-12T18:56:17.310Z,61.80
2023-05-12T18:58:46.881Z,62.02
2023-05-12T19:01:15.034Z,62.94
2023-05-12T19:03:45.492Z,63.51
2023-05-12T19:06:13.943Z,64.13
2023-05-12T19:08:56.274Z,63.86
2023-05-12T19:11:24.950Z,64.93
2023-05-12T19:13:53.240Z,65.53
2023-05-12T19:16:24.091Z,66.00
2023-05-12T19:18:52.208Z,66.40
2023-05-12T19:21:20.484Z,66.88
2023-05-12T19:23:49.100Z,67.58
2023-05-12T19:26:17.403Z,68.00
2023-05-12T19:28:45.665Z,67.59
2023-05-12T19:31:14.229Z,67.27
2023-05-12T19:33:42.469Z,67.75
2023-05-12T19:36:11.794Z,68.03
2023-05-12T19:38:43.943Z,67.80
2023-05-12T19:41:12.254Z,67.79
2023-05-12T19:43:40.773Z,68.70
2023-05-12T19:46:09.316Z,69.15
2023-05-12T19:48:38.189Z,69.36
2023-05-12T19:51:06.437Z,69.33
2023-05-12T19:53:35.237Z,69.61
2023-05-12T19:56:03.717Z,69.67
2023-05-12T19:58:31.818Z,69.91
2023-05-12T20:01:00.166Z,69.42
2023-05-12T20:03:28.670Z,69.02
2023-05-12T20:05:56.971Z,67.93
2023-05-12T20:08:25.447Z,66.88
2023-05-12T20:10:53.738Z,67.02
2023-05-12T20:13:22.194Z,67.53
2023-05-12T20:15:50.886Z,67.92
2023-05-12T20:18:21.954Z,68.58
2023-05-12T20:20:50.319Z,70.45
2023-05-12T20:23:18.460Z,71.35
2023-05-12T20:25:47.320Z,70.90
2023-05-12T20:28:15.895Z,71.00
2023-05-12T20:30:47.246Z,70.72
2023-05-12T20:33:18.708Z,70.73
2023-05-12T20:35:47.596Z,70.25
2023-05-12T20:38:16.284Z,69.77
2023-05-12T20:40:44.638Z,70.38
2023-05-12T20:43:14.693Z,71.42
2023-05-12T20:45:43.051Z,72.58
2023-05-12T20:48:11.883Z,73.25
2023-05-12T20:50:40.566Z,73.44
2023-05-12T20:53:09.056Z,74.81
2023-05-12T20:55:37.103Z,75.21
2023-05-12T20:58:05.258Z,75.57
2023-05-12T21:00:33.941Z,75.65
2023-05-12T21:03:04.087Z,75.65
2023-05-12T21:05:32.752Z,75.77
2023-05-12T21:08:02.025Z,76.12
2023-05-12T21:10:32.589Z,76.52
2023-05-12T21:13:01.067Z,78.01
2023-05-12T21:15:29.638Z,80.82
2023-05-12T21:17:58.463Z,81.50
2023-05-12T21:20:26.475Z,81.89
2023-05-12T21:22:57.302Z,81.96
2023-05-12T21:25:25.609Z,81.74
2023-05-12T21:27:53.759Z,81.21
2023-05-12T21:30:22.116Z,80.06
2023-05-12T21:32:53.340Z,79.73
2023-05-12T21:35:21.102Z,79.04
2023-05-12T21:37:49.966Z,79.58
2023-05-12T21:40:17.973Z,80.06
2023-05-12T21:42:46.361Z,81.09
2023-05-12T21:45:15.599Z,82.26
2023-05-12T21:47:47.869Z,82.42
2023-05-12T21:50:17.061Z,82.08
2023-05-12T21:52:45.601Z,81.67
2023-05-12T21:55:15.158Z,81.84
2023-05-12T21:57:45.393Z,82.06
2023-05-12T22:00:20.517Z,82.70
2023-05-12T22:02:49.677Z,83.20
2023-05-12T22:05:18.068Z,83.84
2023-05-12T22:07:46.905Z,84.27
2023-05-12T22:10:24.167Z,84.65
2023-05-12T22:12:59.854Z,84.90
2023-05-12T22:15:31.136Z,84.83
2023-05-12T22:17:59.234Z,85.42
2023-05-12T22:20:30.408Z,86.58
2023-05-12T22:22:58.784Z,86.88
2023-05-12T22:25:26.829Z,86.73
2023-05-12T22:27:55.197Z,87.40
2023-05-12T22:30:32.156Z,87.71
2023-05-12T22:33:05.932Z,87.43
2023-05-12T22:35:43.746Z,87.14
2023-05-12T22:38:14.923Z,86.97
2023-05-12T22:40:46.804Z,86.82
2023-05-12T22:43:15.606Z,87.29
2023-05-12T22:45:51.518Z,88.56
2023-05-12T22:48:20.823Z,89.23
2023-05-12T22:50:54.512Z,89.13
2023-05-12T22:53:22.736Z,89.22
2023-05-12T22:55:50.783Z,88.96
2023-05-12T22:58:28.941Z,88.22
2023-05-12T23:00:56.667Z,88.18
2023-05-12T23:03:31.185Z,88.71
2023-05-12T23:06:19.882Z,89.50
2023-05-12T23:08:48.451Z,90.48
2023-05-12T23:11:16.605Z,90.80
2023-05-12T23:13:44.507Z,91.92
2023-05-12T23:16:12.950Z,92.38
2023-05-12T23:18:41.260Z,92.49
2023-05-12T23:21:09.456Z,92.92
2023-05-12T23:23:40.154Z,94.06
2023-05-12T23:26:08.301Z,94.66
2023-05-12T23:28:40.140Z,94.73
2023-05-12T23:31:11.097Z,95.21
2023-05-12T23:33:43.151Z,95.33
2023-05-12T23:36:15.473Z,95.63
2023-05-12T23:38:43.501Z,95.30
2023-05-12T23:41:11.723Z,94.99
2023-05-12T23:43:39.750Z,95.85
2023-05-12T23:46:07.821Z,97.26
2023-05-12T23:48:37.740Z,97.94
2023-05-12T23:51:06.459Z,98.72
2023-05-12T23:53:34.884Z,98.68
2023-05-12T23:56:02.833Z,99.15
2023-05-12T23:58:31.536Z,99.34
